Time;durP1;ratioP1;P1;durP2;ratioP2;P2;SDS_P1;SDS_P2;PMS_P1;PMS_P2;Temp;Humidity;BMP_temperature;BMP_pressure;BME280_temperature;BME280_humidity;BME280_pressure;Samples;Min_cycle;Max_cycle;Signal;HPM_P1;HPM_P2
2022/09/29 00:01:24;;;;;;;12.60;8.80;;;;;;;16.58;73.81;98497.02;24752;1327;3058339;-67
2022/09/29 00:03:53;;;;;;;13.10;8.20;;;;;;;16.45;74.12;98501.16;24743;1327;3026704;-63
2022/09/29 00:06:23;;;;;;;13.30;9.70;;;;;;;16.26;74.66;98503.77;24809;1327;3054114;-60
2022/09/29 00:08:52;;;;;;;13.50;9.60;;;;;;;16.08;75.38;98511.40;24805;1327;3028905;-65
2022/09/29 00:11:21;;;;;;;17.90;9.20;;;;;;;15.96;75.50;98509.87;24767;1325;3026766;-62
2022/09/29 00:13:50;;;;;;;8.40;4.90;;;;;;;15.85;75.01;98509.16;24745;1326;3054242;-63
2022/09/29 00:16:19;;;;;;;13.40;7.90;;;;;;;16.32;74.24;98503.38;24753;1326;3026595;-61
2022/09/29 00:18:49;;;;;;;16.20;10.10;;;;;;;16.82;72.60;98503.65;24809;1326;3055308;-67
2022/09/29 00:21:18;;;;;;;14.20;9.60;;;;;;;16.93;72.18;98508.39;24756;1327;3026473;-66
2022/09/29 00:23:48;;;;;;;14.30;10.00;;;;;;;16.73;71.91;98513.39;24734;1326;3026431;-66
2022/09/29 00:26:22;;;;;;;15.60;10.70;;;;;;;16.58;72.31;98515.77;24760;1327;3052134;-64
2022/09/29 00:28:52;;;;;;;16.30;10.40;;;;;;;16.31;73.56;98522.33;24830;1327;3052174;-63
2022/09/29 00:31:22;;;;;;;15.90;10.10;;;;;;;16.11;73.99;98524.66;24743;1327;3027668;-62
2022/09/29 00:33:52;;;;;;;15.30;9.50;;;;;;;16.05;73.66;98527.34;24760;1327;3027124;-62
2022/09/29 00:36:21;;;;;;;9.40;5.50;;;;;;;15.96;73.85;98527.52;24827;1327;3026520;-61
2022/09/29 00:38:53;;;;;;;12.40;7.50;;;;;;;16.45;73.63;98525.73;24842;1327;3059118;-63
2022/09/29 00:41:24;;;;;;;13.50;9.70;;;;;;;16.91;72.00;98524.09;24806;1327;3026474;-63
2022/09/29 00:43:56;;;;;;;17.80;9.90;;;;;;;16.96;71.72;98527.86;24798;1327;3026721;-64
2022/09/29 00:46:39;;;;;;;16.80;10.30;;;;;;;16.78;71.91;98533.58;24864;1327;3027544;-63
2022/09/29 00:49:18;;;;;;;18.40;11.10;;;;;;;16.56;72.17;98538.07;24737;1327;3071762;-62
2022/09/29 00:52:01;;;;;;;19.30;11.00;;;;;;;16.29;73.17;98543.02;24770;1327;3051653;-62
2022/09/29 00:54:37;;;;;;;17.60;11.80;;;;;;;16.04;74.38;98545.53;24793;1327;3055129;-64
2022/09/29 00:57:06;;;;;;;12.00;7.00;;;;;;;15.97;74.49;98545.41;24763;1327;3052482;-62
2022/09/29 00:59:45;;;;;;;14.70;8.80;;;;;;;16.43;73.83;98545.22;24784;1326;3026250;-63
2022/09/29 01:02:14;;;;;;;22.30;10.90;;;;;;;16.90;71.96;98542.96;24745;1327;3052292;-64
2022/09/29 01:04:44;;;;;;;17.30;9.50;;;;;;;16.88;71.73;98544.63;24671;1327;3026662;-63
2022/09/29 01:07:14;;;;;;;18.00;11.40;;;;;;;16.80;71.76;98544.00;24805;1327;3029003;-63
2022/09/29 01:09:43;;;;;;;17.90;12.20;;;;;;;16.63;72.19;98548.35;24776;1326;3027451;-62
2022/09/29 01:12:12;;;;;;;21.20;12.60;;;;;;;16.34;73.15;98555.45;24708;1327;3029128;-65
2022/09/29 01:14:41;;;;;;;18.00;12.20;;;;;;;16.05;73.92;98562.91;24801;1327;3053824;-60
2022/09/29 01:17:12;;;;;;;13.40;8.10;;;;;;;16.08;73.84;98564.86;24734;1327;3028185;-62
2022/09/29 01:19:52;;;;;;;20.90;10.30;;;;;;;16.39;73.94;98569.58;24795;1327;3026348;-63
2022/09/29 01:22:49;;;;;;;22.90;14.00;;;;;;;16.91;72.27;98561.61;24791;1327;3051444;-64
2022/09/29 01:25:57;;;;;;;22.40;14.80;;;;;;;16.66;72.30;98561.31;24824;1327;3068679;-64
2022/09/29 01:28:38;;;;;;;23.80;14.50;;;;;;;16.30;73.43;98564.34;24823;1327;3050065;-63
2022/09/29 01:31:29;;;;;;;22.30;14.20;;;;;;;16.06;75.04;98569.11;24765;1327;3055336;-63
2022/09/29 01:34:16;;;;;;;20.80;13.10;;;;;;;15.99;75.36;98563.50;24756;1327;3055473;-65
2022/09/29 01:36:58;;;;;;;29.30;9.10;;;;;;;15.94;75.57;98559.88;24754;1327;3059199;-65
2022/09/29 01:39:58;;;;;;;48.80;12.00;;;;;;;16.50;74.11;98560.52;24733;1327;3052248;-62
2022/09/29 01:43:00;;;;;;;26.50;12.20;;;;;;;16.97;72.67;98560.30;24767;1327;3055866;-64
2022/09/29 01:45:32;;;;;;;51.00;12.20;;;;;;;16.84;72.55;98558.30;24821;1327;3054666;-63
2022/09/29 01:48:09;;;;;;;22.90;11.90;;;;;;;16.69;72.95;98567.15;24793;1327;3071406;-65
2022/09/29 01:50:41;;;;;;;22.80;11.40;;;;;;;16.39;73.65;98572.27;24774;1327;3052258;-64
2022/09/29 01:53:14;;;;;;;18.30;12.40;;;;;;;16.16;74.83;98572.97;24780;1327;3026461;-63
2022/09/29 01:55:48;;;;;;;24.40;13.00;;;;;;;15.96;75.24;98578.93;24777;1327;3053453;-66
2022/09/29 01:58:19;;;;;;;20.20;8.70;;;;;;;15.78;76.40;98579.09;24702;1327;3027564;-63
2022/09/29 02:00:54;;;;;;;20.20;10.50;;;;;;;16.35;74.95;98575.14;24691;1328;3052809;-64
2022/09/29 02:04:01;;;;;;;21.60;12.90;;;;;;;16.87;73.00;98577.18;24729;1326;3026836;-64
2022/09/29 02:06:35;;;;;;;27.50;16.30;;;;;;;16.59;72.91;98584.13;24788;1327;3054206;-64
2022/09/29 02:09:08;;;;;;;29.90;17.80;;;;;;;16.24;73.81;98589.76;24771;1327;3069056;-61
2022/09/29 02:11:38;;;;;;;30.90;16.90;;;;;;;16.04;74.61;98597.60;24808;1327;3026104;-63
2022/09/29 02:14:22;;;;;;;31.70;17.40;;;;;;;15.85;75.04;98600.70;24745;1327;3026719;-64
2022/09/29 02:16:58;;;;;;;35.00;18.10;;;;;;;15.69;75.35;98610.24;24739;1330;3056129;-64
2022/09/29 02:19:32;;;;;;;19.70;11.50;;;;;;;15.57;76.00;98610.30;24760;1326;3054984;-63
2022/09/29 02:22:01;;;;;;;20.40;12.00;;;;;;;16.12;74.91;98609.86;24724;1327;3052933;-65
2022/09/29 02:24:31;;;;;;;29.30;15.20;;;;;;;16.56;73.11;98611.48;24814;1327;3026728;-63
2022/09/29 02:26:59;;;;;;;32.60;17.70;;;;;;;16.53;72.79;98613.27;24641;1327;3058786;-64
2022/09/29 02:29:28;;;;;;;34.40;16.60;;;;;;;16.35;73.10;98618.64;24700;1327;3026800;-67
2022/09/29 02:32:00;;;;;;;35.50;18.50;;;;;;;16.13;73.76;98625.81;24737;1327;3053990;-65
2022/09/29 02:34:30;;;;;;;34.40;18.00;;;;;;;15.95;74.14;98630.62;24678;1327;3026805;-68
2022/09/29 02:37:14;;;;;;;41.50;20.10;;;;;;;15.75;74.68;98632.11;24733;1327;3026534;-65
2022/09/29 02:39:57;;;;;;;;;;;;;;;15.57;75.62;98641.23;24777;1327;3052254;-64
2022/09/29 02:42:32;;;;;;;34.70;14.90;;;;;;;16.05;74.67;98640.77;24822;1327;3050291;-65
2022/09/29 02:45:18;;;;;;;31.40;14.90;;;;;;;16.49;73.16;98639.69;24795;1327;3068490;-64
2022/09/29 02:48:20;;;;;;;62.70;18.00;;;;;;;16.37;73.18;98646.86;24810;1327;3049164;-66
2022/09/29 02:50:56;;;;;;;55.50;14.90;;;;;;;16.08;73.48;98654.23;24055;1326;4049984;-64
2022/09/29 02:53:47;;;;;;;22.60;11.60;;;;;;;15.84;74.42;98659.90;24759;1327;3068262;-69
2022/09/29 02:56:24;;;;;;;19.90;10.90;;;;;;;15.59;75.11;98665.36;24721;1327;3051668;-65
2022/09/29 02:58:59;;;;;;;21.50;11.60;;;;;;;15.31;76.39;98672.59;24825;1327;3052937;-64
2022/09/29 03:01:32;;;;;;;16.20;7.10;;;;;;;15.15;77.30;98676.88;24769;1327;3052793;-66
2022/09/29 03:04:01;;;;;;;20.50;9.40;;;;;;;15.77;76.14;98666.22;24684;1326;3026870;-62
2022/09/29 03:06:31;;;;;;;20.00;10.70;;;;;;;16.27;74.11;98663.34;24779;1327;3026548;-63
2022/09/29 03:09:01;;;;;;;21.90;13.40;;;;;;;16.22;73.39;98663.64;24754;1327;3054879;-64
2022/09/29 03:11:30;;;;;;;22.30;12.00;;;;;;;15.86;74.28;98668.01;24729;1327;3026744;-63
2022/09/29 03:13:59;;;;;;;20.00;11.60;;;;;;;15.55;75.21;98670.52;24709;1329;3027815;-64
2022/09/29 03:16:28;;;;;;;20.70;11.80;;;;;;;15.32;76.11;98677.76;24797;1327;3051766;-64
2022/09/29 03:18:58;;;;;;;24.50;11.70;;;;;;;15.10;76.87;98682.80;24772;1327;3026531;-66
2022/09/29 03:21:28;;;;;;;14.90;8.30;;;;;;;14.94;77.83;98685.10;24749;1325;3026829;-66
2022/09/29 03:23:57;;;;;;;21.40;9.70;;;;;;;15.37;77.00;98680.36;24776;1326;3054501;-62
2022/09/29 03:26:26;;;;;;;22.30;11.40;;;;;;;15.91;75.12;98675.85;24743;1327;3026614;-65
2022/09/29 03:28:55;;;;;;;21.30;11.50;;;;;;;15.95;74.08;98672.96;24761;1327;3051940;-61
2022/09/29 03:31:24;;;;;;;21.80;11.00;;;;;;;15.76;74.54;98678.86;24758;1327;3026178;-64
2022/09/29 03:33:53;;;;;;;27.00;11.40;;;;;;;15.46;74.98;98680.17;24759;1327;3051122;-63
2022/09/29 03:36:22;;;;;;;21.60;13.50;;;;;;;15.14;76.58;98690.56;24767;1327;3026493;-63
2022/09/29 03:38:51;;;;;;;21.00;11.50;;;;;;;14.86;77.82;98692.92;24768;1327;3071043;-64
2022/09/29 03:41:19;;;;;;;17.00;8.20;;;;;;;14.72;78.61;98690.81;24780;1326;3026273;-62
2022/09/29 03:43:49;;;;;;;25.50;9.60;;;;;;;15.08;77.78;98691.80;24779;1326;3053178;-62
2022/09/29 03:46:18;;;;;;;19.80;10.00;;;;;;;15.57;75.93;98682.67;24756;1326;3026858;-63
2022/09/29 03:48:48;;;;;;;15.20;9.00;;;;;;;15.57;75.15;98683.06;24847;1326;3055819;-66
2022/09/29 03:51:16;;;;;;;17.40;9.10;;;;;;;15.45;75.25;98682.73;24806;1327;3028836;-60
2022/09/29 03:53:45;;;;;;;13.20;8.00;;;;;;;15.29;75.55;98688.44;24722;1326;3049662;-65
2022/09/29 03:56:15;;;;;;;17.30;8.30;;;;;;;15.14;75.81;98688.95;24781;1327;3026680;-65
2022/09/29 03:58:44;;;;;;;13.40;7.50;;;;;;;14.98;76.41;98691.98;24851;1325;3026511;-64
2022/09/29 04:01:13;;;;;;;11.10;5.50;;;;;;;14.84;77.13;98702.22;24757;1326;3051488;-64
2022/09/29 04:03:42;;;;;;;10.30;6.30;;;;;;;15.28;76.56;98703.85;24856;1327;3026977;-61
2022/09/29 04:06:12;;;;;;;14.10;7.00;;;;;;;15.80;74.53;98696.78;24801;1326;3058843;-62
2022/09/29 04:08:42;;;;;;;12.20;7.30;;;;;;;15.77;73.88;98697.98;24784;1326;3026552;-62
2022/09/29 04:11:11;;;;;;;14.80;8.80;;;;;;;15.63;74.35;98700.15;24725;1327;3026583;-63
2022/09/29 04:14:58;;;;;;;16.30;7.80;;;;;;;15.42;74.81;98712.67;31493;1318;3026497;-63
2022/09/29 04:17:28;;;;;;;13.80;9.80;;;;;;;15.45;74.44;98710.98;24937;1321;3026576;-62
2022/09/29 04:19:57;;;;;;;13.60;8.80;;;;;;;15.56;74.02;98709.77;24910;1321;3027294;-62
2022/09/29 04:22:26;;;;;;;8.00;4.80;;;;;;;15.43;74.57;98718.06;24982;1321;3048375;-63
2022/09/29 04:24:57;;;;;;;12.40;6.80;;;;;;;15.93;73.74;98719.92;24987;1324;3026992;-64
2022/09/29 04:27:26;;;;;;;12.60;7.40;;;;;;;16.42;72.70;98723.81;24306;1321;4033959;-62
2022/09/29 04:29:55;;;;;;;15.80;9.20;;;;;;;16.48;72.07;98723.91;24975;1318;3026649;-66
2022/09/29 04:32:25;;;;;;;14.10;8.50;;;;;;;16.35;72.47;98726.89;25065;1318;3052861;-65
2022/09/29 04:34:54;;;;;;;21.80;9.90;;;;;;;16.19;72.43;98730.39;25014;1318;3026822;-62
2022/09/29 04:37:23;;;;;;;14.50;8.80;;;;;;;15.94;72.75;98734.05;25033;1318;3026569;-63
2022/09/29 04:39:53;;;;;;;17.70;10.20;;;;;;;15.77;73.38;98743.37;25021;1318;3026220;-61
2022/09/29 04:42:22;;;;;;;17.50;10.40;;;;;;;15.65;73.96;98756.81;25004;1317;3054690;-61
2022/09/29 04:44:51;;;;;;;9.90;5.60;;;;;;;15.53;74.51;98751.34;25023;1316;3026507;-62
2022/09/29 04:47:20;;;;;;;14.60;8.10;;;;;;;16.01;74.05;98743.77;25057;1318;3026876;-63
2022/09/29 04:49:49;;;;;;;15.80;8.30;;;;;;;16.51;72.65;98734.05;25020;1318;3054214;-62
2022/09/29 04:52:18;;;;;;;16.40;9.50;;;;;;;16.56;72.04;98728.64;25079;1318;3026860;-65
2022/09/29 04:54:47;;;;;;;18.50;9.60;;;;;;;16.39;71.73;98729.67;25058;1318;3053812;-63
2022/09/29 04:57:16;;;;;;;17.80;8.90;;;;;;;16.22;72.22;98741.27;25050;1317;3026593;-61
2022/09/29 04:59:45;;;;;;;15.70;9.40;;;;;;;16.05;72.96;98741.22;25012;1317;3051582;-61
2022/09/29 05:02:14;;;;;;;16.60;9.80;;;;;;;15.90;73.34;98741.91;25093;1316;3026814;-59
2022/09/29 05:04:46;;;;;;;17.50;10.10;;;;;;;15.79;73.89;98748.46;25057;1318;3070175;-63
2022/09/29 05:07:15;;;;;;;9.20;5.20;;;;;;;15.76;74.11;98750.69;25103;1318;3026911;-66
2022/09/29 05:09:44;;;;;;;12.10;7.10;;;;;;;16.37;73.13;98748.41;25064;1318;3029876;-62
2022/09/29 05:12:13;;;;;;;14.50;9.00;;;;;;;16.76;71.89;98747.92;25043;1318;3070887;-61
2022/09/29 05:14:42;;;;;;;18.30;9.00;;;;;;;16.81;72.04;98759.10;25068;1318;3026674;-63
2022/09/29 05:17:11;;;;;;;12.30;7.50;;;;;;;16.78;72.05;98762.95;25014;1318;3026285;-62
2022/09/29 05:19:41;;;;;;;15.80;8.00;;;;;;;16.67;71.42;98765.02;25044;1315;3068710;-64
2022/09/29 05:22:10;;;;;;;17.80;8.80;;;;;;;16.54;71.70;98765.59;25067;1315;3026906;-67
2022/09/29 05:24:40;;;;;;;16.90;9.20;;;;;;;16.38;71.66;98768.82;25050;1315;3053061;-64
2022/09/29 05:27:08;;;;;;;15.30;9.60;;;;;;;16.29;72.18;98775.09;25111;1315;3026669;-64
2022/09/29 05:29:38;;;;;;;11.00;5.10;;;;;;;16.18;72.78;98774.50;25091;1315;3055357;-64
2022/09/29 05:32:07;;;;;;;14.90;7.70;;;;;;;16.65;71.80;98776.88;25090;1315;3026897;-65
2022/09/29 05:34:36;;;;;;;13.80;7.90;;;;;;;17.18;69.18;98778.33;25140;1314;3051133;-64
2022/09/29 05:37:05;;;;;;;16.30;9.50;;;;;;;17.32;69.42;98786.11;25101;1315;3026202;-67
2022/09/29 05:39:36;;;;;;;17.10;8.80;;;;;;;17.27;69.14;98793.20;25046;1315;3058163;-65
2022/09/29 05:42:05;;;;;;;15.70;8.70;;;;;;;17.16;69.44;98798.38;25084;1315;3026434;-63
2022/09/29 05:44:35;;;;;;;19.00;10.20;;;;;;;17.03;69.68;98802.08;25078;1315;3028466;-63
2022/09/29 05:47:04;;;;;;;18.50;10.70;;;;;;;16.82;69.79;98807.27;25119;1315;3026523;-65
2022/09/29 05:49:35;;;;;;;20.30;11.00;;;;;;;16.74;70.08;98808.54;25026;1315;3026504;-63
2022/09/29 05:52:08;;;;;;;22.00;11.40;;;;;;;16.53;70.22;98809.89;25226;1315;3055604;-64
2022/09/29 05:54:38;;;;;;;17.70;10.70;;;;;;;16.46;70.31;98810.86;25103;1315;3026963;-64
2022/09/29 05:57:07;;;;;;;18.60;10.40;;;;;;;16.38;70.64;98815.70;25070;1315;3026452;-62
2022/09/29 05:59:37;;;;;;;10.30;6.00;;;;;;;16.29;71.09;98820.45;25120;1315;3054554;-65
2022/09/29 06:02:06;;;;;;;12.60;6.90;;;;;;;16.77;69.60;98817.11;25063;1315;3026441;-63
2022/09/29 06:04:35;;;;;;;17.40;8.60;;;;;;;17.45;68.43;98818.88;25056;1315;3050684;-62
2022/09/29 06:07:04;;;;;;;24.60;10.60;;;;;;;17.54;67.22;98819.39;25052;1315;3027859;-65
2022/09/29 06:09:34;;;;;;;16.80;9.90;;;;;;;17.31;67.48;98816.52;25121;1313;3028695;-63
2022/09/29 06:12:04;;;;;;;20.50;9.80;;;;;;;17.18;68.22;98816.16;25050;1315;3049404;-63
2022/09/29 06:14:33;;;;;;;17.90;9.50;;;;;;;17.04;68.46;98817.34;25067;1313;3028788;-64
2022/09/29 06:17:02;;;;;;;19.10;8.80;;;;;;;17.05;68.63;98823.09;25102;1314;3027243;-62
2022/09/29 06:19:31;;;;;;;18.80;9.70;;;;;;;16.96;68.76;98825.38;25133;1315;3051997;-63
2022/09/29 06:22:00;;;;;;;19.90;11.00;;;;;;;16.83;69.85;98833.40;25096;1315;3026910;-65
2022/09/29 06:24:29;;;;;;;20.00;11.40;;;;;;;16.77;69.85;98840.60;25146;1315;3055787;-61
2022/09/29 06:26:58;;;;;;;21.40;10.90;;;;;;;16.81;70.26;98841.27;25072;1315;3025947;-65
2022/09/29 06:29:27;;;;;;;22.10;11.30;;;;;;;16.79;69.70;98843.30;25141;1314;3052551;-64
2022/09/29 06:31:56;;;;;;;15.60;6.40;;;;;;;16.78;69.99;98852.24;25067;1315;3028313;-63
2022/09/29 06:34:27;;;;;;;14.90;7.40;;;;;;;17.44;68.46;98852.38;25049;1315;3055483;-63
2022/09/29 06:39:44;;;;;;;13.70;7.30;;;;;;;18.34;65.77;98852.99;25008;1315;3051784;-63
2022/09/29 06:42:15;;;;;;;12.90;7.90;;;;;;;18.29;65.50;98855.90;25087;1315;3026715;-62
2022/09/29 06:44:44;;;;;;;14.40;8.10;;;;;;;18.16;64.61;98856.25;25050;1315;3069251;-62
2022/09/29 06:47:13;;;;;;;16.00;8.70;;;;;;;18.03;65.31;98858.81;25078;1315;3027181;-62
2022/09/29 06:49:42;;;;;;;15.90;9.00;;;;;;;17.87;65.74;98857.83;25043;1315;3026579;-62
2022/09/29 06:52:12;;;;;;;20.00;11.30;;;;;;;17.79;65.91;98857.29;25105;1315;3070476;-62
2022/09/29 06:54:42;;;;;;;16.90;10.00;;;;;;;17.75;66.05;98862.59;25020;1315;3026494;-63
2022/09/29 06:57:11;;;;;;;19.60;10.80;;;;;;;17.76;66.10;98864.64;25188;1314;3051161;-62
2022/09/29 06:59:40;;;;;;;18.30;11.30;;;;;;;17.72;66.43;98868.23;25155;1314;3026942;-63
2022/09/29 07:02:10;;;;;;;15.80;9.70;;;;;;;17.65;66.48;98872.42;25149;1314;3055307;-63
2022/09/29 07:04:39;;;;;;;14.00;8.30;;;;;;;17.66;66.07;98874.60;25124;1315;3025890;-65
2022/09/29 07:07:08;;;;;;;17.20;9.30;;;;;;;17.72;65.99;98873.55;25040;1314;3026867;-67
2022/09/29 07:10:24;;;;;;;19.10;11.20;;;;;;;17.78;66.10;98880.70;25146;1313;3052643;-64
2022/09/29 07:12:54;;;;;;;19.10;9.40;;;;;;;17.77;66.63;98881.18;25111;1315;3051590;-63
2022/09/29 07:15:31;;;;;;;21.10;11.10;;;;;;;17.82;67.38;98880.33;25032;1315;3026703;-63
2022/09/29 07:18:01;;;;;;;15.90;7.70;;;;;;;17.90;67.86;98875.45;25217;1315;3051310;-65
2022/09/29 07:20:30;;;;;;;17.80;9.70;;;;;;;18.59;67.21;98877.15;25101;1315;3026527;-66
2022/09/29 07:22:59;;;;;;;20.20;10.50;;;;;;;19.14;65.42;98876.59;25116;1315;3068975;-64
2022/09/29 07:25:28;;;;;;;20.80;12.30;;;;;;;19.37;64.44;98879.36;25124;1315;3026588;-66
2022/09/29 07:27:57;;;;;;;17.30;10.40;;;;;;;19.41;63.47;98882.10;25012;1314;3050243;-65
2022/09/29 07:30:26;;;;;;;18.90;11.70;;;;;;;19.24;63.35;98887.70;25106;1314;3025923;-63
2022/09/29 07:32:57;;;;;;;15.20;9.40;;;;;;;19.16;63.57;98885.33;25119;1315;3054130;-68
2022/09/29 07:35:26;;;;;;;14.10;8.40;;;;;;;18.92;63.12;98887.96;25138;1315;3026563;-64
2022/09/29 07:37:55;;;;;;;16.90;10.40;;;;;;;18.78;63.70;98894.30;25054;1315;3050573;-65
2022/09/29 07:40:25;;;;;;;19.50;10.70;;;;;;;18.72;64.81;98892.71;25177;1314;3026775;-63
2022/09/29 07:42:54;;;;;;;15.30;9.00;;;;;;;18.73;64.29;98895.05;25217;1315;3057495;-64
2022/09/29 07:45:23;;;;;;;15.60;9.90;;;;;;;18.74;64.40;98896.21;25121;1315;3028894;-65
2022/09/29 07:47:52;;;;;;;15.50;9.40;;;;;;;18.85;64.23;98898.14;25043;1315;3055625;-62
2022/09/29 07:50:21;;;;;;;16.80;9.60;;;;;;;18.87;64.18;98890.29;25144;1315;3026434;-65
2022/09/29 07:52:51;;;;;;;17.60;10.00;;;;;;;18.91;64.29;98889.35;25135;1315;3054403;-65
2022/09/29 07:55:20;;;;;;;15.80;10.40;;;;;;;18.90;64.33;98889.55;25030;1315;3027349;-65
2022/09/29 07:57:50;;;;;;;13.60;8.90;;;;;;;18.98;64.28;98890.36;25149;1315;3027040;-64
2022/09/29 08:00:20;;;;;;;20.10;11.10;;;;;;;19.07;63.60;98888.42;25200;1315;3052227;-66
2022/09/29 08:02:48;;;;;;;20.20;10.20;;;;;;;18.99;63.64;98888.63;25162;1314;3025978;-64
2022/09/29 08:05:18;;;;;;;16.90;9.50;;;;;;;19.14;63.61;98892.73;25066;1315;3050841;-64
2022/09/29 08:07:50;;;;;;;15.30;9.10;;;;;;;19.31;63.53;98890.84;25191;1314;3026773;-64
2022/09/29 08:10:20;;;;;;;18.50;10.10;;;;;;;19.28;62.05;98889.49;25109;1315;3026676;-65
2022/09/29 08:12:49;;;;;;;16.70;10.30;;;;;;;19.26;62.28;98890.30;25180;1315;3026128;-63
2022/09/29 08:15:44;;;;;;;14.40;8.70;;;;;;;19.32;62.16;98884.91;25141;1315;3049736;-65
2022/09/29 08:18:14;;;;;;;15.90;9.70;;;;;;;19.42;62.55;98887.13;25046;1315;3026578;-63
2022/09/29 08:20:46;;;;;;;19.80;11.30;;;;;;;19.45;62.15;98885.08;25020;1315;3026582;-64
2022/09/29 08:23:15;;;;;;;19.10;10.80;;;;;;;19.16;62.32;98884.02;25076;1315;3027128;-64
2022/09/29 08:25:44;;;;;;;15.90;9.50;;;;;;;19.26;63.05;98886.00;25076;1315;3026531;-66
2022/09/29 08:28:13;;;;;;;14.30;9.10;;;;;;;19.45;62.44;98886.16;25127;1315;3050267;-64
2022/09/29 08:30:42;;;;;;;14.70;8.40;;;;;;;19.56;62.15;98890.81;25064;1314;3026424;-65
2022/09/29 08:33:13;;;;;;;17.60;9.00;;;;;;;19.68;61.65;98894.67;25106;1315;3055208;-64
2022/09/29 08:35:43;;;;;;;15.70;10.10;;;;;;;19.75;61.41;98902.05;25079;1315;3028598;-64
2022/09/29 08:38:12;;;;;;;19.20;10.40;;;;;;;19.79;61.73;98899.56;25015;1315;3027121;-65
2022/09/29 08:40:41;;;;;;;20.30;10.70;;;;;;;19.81;61.21;98903.42;25082;1315;3055796;-63
2022/09/29 08:43:33;;;;;;;18.40;10.90;;;;;;;19.86;61.05;98900.25;25034;1315;3026887;-68
2022/09/29 08:46:14;;;;;;;19.00;9.50;;;;;;;19.99;61.12;98902.23;25111;1315;3069184;-65
2022/09/29 08:48:44;;;;;;;19.40;11.80;;;;;;;19.96;60.82;98905.75;25029;1315;3051741;-64
2022/09/29 08:51:33;;;;;;;17.80;10.40;;;;;;;19.97;60.79;98905.84;25196;1313;3026897;-64
2022/09/29 08:54:06;;;;;;;15.30;10.20;;;;;;;20.12;60.63;98910.03;25025;1313;3070888;-66
2022/09/29 08:56:35;;;;;;;18.10;11.40;;;;;;;20.24;60.37;98910.36;25045;1315;3048707;-62
2022/09/29 08:59:08;;;;;;;18.90;10.90;;;;;;;20.23;60.38;98914.22;25113;1313;3026582;-65
2022/09/29 09:01:52;;;;;;;15.50;9.50;;;;;;;20.40;60.04;98914.39;25165;1315;3028334;-65
2022/09/29 09:04:37;;;;;;;15.10;9.60;;;;;;;20.47;59.71;98917.64;25118;1315;3057871;-66
2022/09/29 09:07:15;;;;;;;16.70;10.70;;;;;;;20.55;59.70;98919.35;25123;1313;3051976;-66
2022/09/29 09:09:56;;;;;;;17.00;10.90;;;;;;;20.52;58.96;98932.17;25098;1313;3055293;-66
2022/09/29 09:12:37;;;;;;;15.50;10.30;;;;;;;20.59;58.89;98933.36;25148;1313;3051444;-65
2022/09/29 09:15:34;;;;;;;19.70;10.70;;;;;;;20.67;57.98;98933.54;25134;1315;3068843;-63
2022/09/29 09:18:55;;;;;;;17.30;10.00;;;;;;;20.71;57.84;98930.95;25068;1314;3051669;-64
2022/09/29 09:21:32;;;;;;;17.00;10.70;;;;;;;20.75;57.80;98930.70;25091;1315;3054779;-64
2022/09/29 09:24:15;;;;;;;16.80;9.60;;;;;;;20.79;57.48;98933.09;25163;1315;3052714;-63
2022/09/29 09:26:45;;;;;;;13.10;8.80;;;;;;;20.86;57.06;98932.40;25157;1315;3056700;-63
2022/09/29 09:29:31;;;;;;;17.70;9.40;;;;;;;20.92;56.88;98928.08;25067;1315;3027691;-64
2022/09/29 09:32:27;;;;;;;15.60;9.70;;;;;;;20.96;57.11;98931.57;25099;1315;3054672;-63
2022/09/29 09:34:59;;;;;;;15.40;9.40;;;;;;;20.93;56.57;98932.77;25029;1315;3026242;-65
2022/09/29 09:37:33;;;;;;;17.30;9.50;;;;;;;20.91;56.76;98938.73;25048;1318;3026067;-64
2022/09/29 09:40:14;;;;;;;13.50;8.70;;;;;;;20.99;57.15;98939.23;25100;1315;3049103;-65
2022/09/29 09:42:51;;;;;;;13.40;8.20;;;;;;;21.05;57.17;98947.88;25152;1315;3055425;-64
2022/09/29 09:45:29;;;;;;;14.70;10.00;;;;;;;21.13;56.86;98950.72;25143;1315;3052921;-65
2022/09/29 09:48:19;;;;;;;13.40;8.50;;;;;;;21.10;56.80;98948.86;25176;1315;3058080;-64
2022/09/29 09:50:49;;;;;;;19.50;9.00;;;;;;;21.22;56.23;98952.91;25073;1315;3052776;-64
2022/09/29 09:53:40;;;;;;;17.80;10.20;;;;;;;21.34;56.16;98948.02;25050;1315;3052737;-65
2022/09/29 09:56:09;;;;;;;16.50;9.60;;;;;;;21.39;56.45;98949.75;25030;1317;3050595;-62
2022/09/29 09:58:47;;;;;;;19.30;10.30;;;;;;;21.45;56.12;98953.45;25128;1314;3028065;-63
2022/09/29 10:01:16;;;;;;;18.60;9.80;;;;;;;21.47;56.28;98954.27;25139;1315;3049086;-65
2022/09/29 10:03:46;;;;;;;24.60;11.30;;;;;;;21.38;56.21;98961.21;25100;1315;3026927;-63
2022/09/29 10:06:15;;;;;;;17.40;9.90;;;;;;;21.40;56.78;98953.69;25104;1313;3026610;-66
2022/09/29 10:08:44;;;;;;;24.50;11.10;;;;;;;21.52;56.44;98954.83;25106;1316;3048649;-66
2022/09/29 10:11:21;;;;;;;24.00;11.40;;;;;;;21.53;56.33;98955.83;25092;1313;3026533;-63
2022/09/29 10:14:18;;;;;;;25.90;12.10;;;;;;;21.63;56.11;98958.60;25133;1313;3068552;-65
2022/09/29 10:16:52;;;;;;;21.60;10.80;;;;;;;21.63;56.42;98959.33;25083;1315;3050399;-63
2022/09/29 10:19:23;;;;;;;20.90;10.50;;;;;;;21.77;55.81;98960.73;25151;1314;3055513;-64
2022/09/29 10:21:52;;;;;;;30.10;11.90;;;;;;;21.75;55.86;98963.39;25071;1315;3030333;-62
2022/09/29 10:24:28;;;;;;;17.50;9.40;;;;;;;21.76;56.53;98961.17;25105;1313;3026197;-65
2022/09/29 10:26:59;;;;;;;18.80;10.50;;;;;;;21.82;55.48;98957.66;25176;1315;3052205;-64
2022/09/29 10:29:49;;;;;;;19.30;10.80;;;;;;;21.86;55.69;98958.46;25160;1313;3026471;-62
2022/09/29 10:32:22;;;;;;;20.00;10.70;;;;;;;21.91;55.21;98956.29;25094;1313;3060003;-63
2022/09/29 10:34:55;;;;;;;23.70;11.40;;;;;;;22.02;55.27;98953.13;25097;1313;3027711;-61
2022/09/29 10:37:27;;;;;;;20.80;11.00;;;;;;;22.05;54.86;98950.16;25142;1313;3052928;-63
2022/09/29 10:40:22;;;;;;;17.90;10.70;;;;;;;22.11;55.12;98949.58;25101;1313;3026868;-65
2022/09/29 10:42:52;;;;;;;21.70;10.50;;;;;;;22.17;55.34;98951.98;25053;1315;3071414;-63
2022/09/29 10:45:30;;;;;;;20.70;10.80;;;;;;;22.26;55.22;98947.10;25109;1315;3026185;-65
2022/09/29 10:48:12;;;;;;;19.40;11.10;;;;;;;22.32;54.78;98945.52;25071;1313;3052859;-64
2022/09/29 10:50:52;;;;;;;15.60;9.90;;;;;;;22.45;54.54;98945.48;25130;1315;3052217;-65
2022/09/29 10:53:39;;;;;;;26.90;11.30;;;;;;;22.49;54.41;98949.52;25173;1313;3058918;-67
2022/09/29 10:56:15;;;;;;;21.10;10.90;;;;;;;22.55;54.07;98948.95;25116;1313;3050249;-65
2022/09/29 10:58:45;;;;;;;17.80;10.20;;;;;;;22.51;54.41;98946.80;25151;1315;3053261;-67
2022/09/29 11:01:15;;;;;;;21.60;12.00;;;;;;;22.44;54.76;98950.08;25171;1315;3026865;-68
2022/09/29 11:04:02;;;;;;;21.90;11.30;;;;;;;22.56;54.29;98950.70;25099;1314;3026599;-62
2022/09/29 11:06:33;;;;;;;15.20;10.10;;;;;;;22.64;54.15;98950.20;25137;1315;3049263;-64
2022/09/29 11:09:04;;;;;;;19.20;9.90;;;;;;;22.69;53.82;98953.70;25135;1315;3026422;-64
2022/09/29 11:11:35;;;;;;;14.90;9.10;;;;;;;22.75;53.73;98955.63;25075;1315;3026881;-64
2022/09/29 11:14:04;;;;;;;16.20;10.30;;;;;;;22.83;53.44;98951.90;25154;1314;3027400;-66
2022/09/29 11:16:36;;;;;;;16.70;9.90;;;;;;;22.87;53.28;98952.29;24990;1315;3028818;-64
2022/09/29 11:19:11;;;;;;;20.70;10.30;;;;;;;22.92;53.00;98947.01;25050;1315;3054531;-65
2022/09/29 11:21:40;;;;;;;15.40;9.80;;;;;;;22.99;52.53;98950.27;25119;1315;3026497;-65
2022/09/29 11:24:24;;;;;;;18.90;10.10;;;;;;;23.06;52.19;98950.12;25157;1314;3026731;-67
2022/09/29 11:26:57;;;;;;;;;;;;;;;23.18;52.21;98955.61;25062;1314;3053410;-70
2022/09/29 11:29:31;;;;;;;;;;;;;;;23.10;52.27;98956.44;25131;1314;3050962;-64
2022/09/29 11:32:25;;;;;;;17.50;9.40;;;;;;;23.19;52.68;98959.54;25080;1315;3071045;-66
2022/09/29 11:35:09;;;;;;;17.90;9.60;;;;;;;23.32;52.27;98958.05;25098;1316;3050566;-71
2022/09/29 11:37:41;;;;;;;21.80;10.70;;;;;;;23.36;51.42;98958.91;25112;1315;3052454;-70
2022/09/29 11:40:42;;;;;;;16.80;9.20;;;;;;;23.33;51.38;98959.13;25163;1313;3026769;-65